createdAt,value
2023-02-14T00:00:27.810Z,8.60
2023-02-14T00:04:29.142Z,7.67
2023-02-14T00:08:30.518Z,8.83
2023-02-14T00:12:32.041Z,9.20
2023-02-14T00:16:33.532Z,8.60
2023-02-14T00:20:36.938Z,10.10
2023-02-14T00:24:38.311Z,9.03
2023-02-14T00:28:39.620Z,7.83
2023-02-14T00:32:41.896Z,9.33
2023-02-14T00:36:43.652Z,7.30
2023-02-14T00:40:46.451Z,7.87
2023-02-14T00:44:47.760Z,8.50
2023-02-14T00:48:49.848Z,9.67
2023-02-14T00:52:51.161Z,10.07
2023-02-14T00:56:52.516Z,10.33
2023-02-14T01:00:53.932Z,10.33
2023-02-14T01:04:55.298Z,10.80
2023-02-14T01:08:56.997Z,10.23
2023-02-14T01:12:58.605Z,11.00
2023-02-14T01:16:59.926Z,11.43
2023-02-14T01:21:23.193Z,12.33
2023-02-14T01:25:24.599Z,11.90
2023-02-14T01:29:25.912Z,12.03
2023-02-14T01:33:27.205Z,12.47
2023-02-14T01:37:30.104Z,10.53
2023-02-14T01:41:34.320Z,11.10
2023-02-14T01:45:35.660Z,11.43
2023-02-14T01:49:43.872Z,9.17
2023-02-14T01:53:45.518Z,11.37
2023-02-14T01:57:53.512Z,9.93
2023-02-14T02:01:55.400Z,10.50
2023-02-14T02:06:01.865Z,10.37
2023-02-14T02:10:05.252Z,10.80
2023-02-14T02:14:09.459Z,10.90
2023-02-14T02:18:32.188Z,10.77
2023-02-14T02:23:09.858Z,12.43
2023-02-14T02:27:26.193Z,12.33
2023-02-14T02:31:47.932Z,10.77
2023-02-14T02:35:58.693Z,12.03
2023-02-14T02:40:11.873Z,11.43
2023-02-14T02:44:15.962Z,12.27
2023-02-14T02:48:23.483Z,13.27
2023-02-14T02:53:03.729Z,12.97
2023-02-14T02:57:12.062Z,12.17
2023-02-14T03:01:23.702Z,12.30
2023-02-14T03:05:27.309Z,13.13
2023-02-14T03:09:28.617Z,12.77
2023-02-14T03:13:58.024Z,13.20
2023-02-14T03:18:27.126Z,14.00
2023-02-14T03:22:48.649Z,12.67
2023-02-14T03:27:01.185Z,14.07
2023-02-14T03:31:10.664Z,13.77
2023-02-14T03:35:25.876Z,14.37
2023-02-14T03:39:59.293Z,14.27
2023-02-14T03:44:10.078Z,14.80
2023-02-14T03:48:13.892Z,14.67
2023-02-14T03:52:16.758Z,14.90
2023-02-14T03:56:26.720Z,14.73
2023-02-14T04:00:30.322Z,14.60
2023-02-14T04:04:35.924Z,15.27
2023-02-14T04:08:37.309Z,16.20
2023-02-14T04:12:38.671Z,15.60
2023-02-14T04:16:59.046Z,15.10
2023-02-14T04:21:00.684Z,17.30
2023-02-14T04:25:02.294Z,15.47
2023-02-14T04:29:03.838Z,17.27
2023-02-14T04:33:05.234Z,18.40
2023-02-14T04:37:07.561Z,17.97
2023-02-14T04:41:08.954Z,18.80
2023-02-14T04:45:10.353Z,18.00
2023-02-14T04:49:11.681Z,18.10
2023-02-14T04:53:13.037Z,20.13
2023-02-14T04:57:14.390Z,17.43
2023-02-14T05:01:15.719Z,19.93
2023-02-14T05:05:17.119Z,18.30
2023-02-14T05:09:18.525Z,20.30
2023-02-14T05:13:19.800Z,19.93
2023-02-14T05:17:21.136Z,18.80
2023-02-14T05:21:22.398Z,21.53
2023-02-14T05:25:23.724Z,19.03
2023-02-14T05:29:25.146Z,20.53
2023-02-14T05:33:26.864Z,20.30
2023-02-14T05:37:28.350Z,22.33
2023-02-14T05:41:29.712Z,24.43
2023-02-14T05:45:31.131Z,22.47
2023-02-14T05:49:32.559Z,22.07
2023-02-14T05:53:34.400Z,22.87
2023-02-14T05:57:35.806Z,20.73
2023-02-14T06:01:37.174Z,23.90
2023-02-14T06:05:38.567Z,24.93
2023-02-14T06:09:40.701Z,25.17
2023-02-14T06:13:42.042Z,24.90
2023-02-14T06:17:43.500Z,26.30
2023-02-14T06:21:44.806Z,26.13
2023-02-14T06:25:46.136Z,23.03
2023-02-14T06:29:48.566Z,25.87
2023-02-14T06:33:50.294Z,27.63
2023-02-14T06:37:51.599Z,25.17
2023-02-14T06:41:52.942Z,27.43
2023-02-14T06:45:54.280Z,26.80
2023-02-14T06:49:55.809Z,28.93
2023-02-14T06:53:57.139Z,31.50
2023-02-14T06:57:58.451Z,33.53
2023-02-14T07:01:59.770Z,30.20
2023-02-14T07:06:01.115Z,32.30
2023-02-14T07:10:02.529Z,29.13
2023-02-14T07:14:03.837Z,30.83
2023-02-14T07:18:05.483Z,32.30
2023-02-14T07:22:06.786Z,29.37
2023-02-14T07:26:08.217Z,32.53
2023-02-14T07:30:10.989Z,28.87
2023-02-14T07:34:12.362Z,32.83
2023-02-14T07:38:13.690Z,30.17
2023-02-14T07:42:15.142Z,31.37
2023-02-14T07:46:17.507Z,32.63
2023-02-14T07:50:19.999Z,30.83
2023-02-14T07:54:21.334Z,29.60
2023-02-14T07:58:22.865Z,30.27
2023-02-14T08:02:24.223Z,31.80
2023-02-14T08:06:27.699Z,27.17
2023-02-14T08:10:29.027Z,26.40
2023-02-14T08:14:30.333Z,29.53
2023-02-14T08:18:39.944Z,27.90
2023-02-14T08:22:41.242Z,25.20
2023-02-14T08:26:42.573Z,26.73
2023-02-14T08:30:44.557Z,24.10
2023-02-14T08:34:45.928Z,27.47
2023-02-14T08:38:47.922Z,23.87
2023-02-14T08:42:49.301Z,21.67
2023-02-14T08:46:50.724Z,19.00
2023-02-14T08:50:52.218Z,22.70
2023-02-14T08:54:53.717Z,22.83
2023-02-14T08:58:55.093Z,21.03
2023-02-14T09:02:56.596Z,21.37
2023-02-14T09:06:57.852Z,23.50
2023-02-14T09:10:59.553Z,21.07
2023-02-14T09:15:01.181Z,20.63
2023-02-14T09:19:02.610Z,19.63
2023-02-14T09:23:04.068Z,18.50
2023-02-14T09:27:05.713Z,21.30
2023-02-14T09:31:16.188Z,21.10
2023-02-14T09:35:17.653Z,22.00
2023-02-14T09:39:19.065Z,20.33
2023-02-14T09:43:34.554Z,20.77
2023-02-14T09:47:47.748Z,21.93
2023-02-14T09:51:52.565Z,22.07
2023-02-14T09:56:03.615Z,20.00
2023-02-14T10:00:37.396Z,21.13
2023-02-14T10:04:42.371Z,24.73
2023-02-14T10:08:52.419Z,21.83
2023-02-14T10:13:05.661Z,19.90
2023-02-14T10:17:18.268Z,19.97
2023-02-14T10:21:47.869Z,18.90
2023-02-14T10:25:57.316Z,19.23
2023-02-14T10:29:58.779Z,19.00
2023-02-14T10:34:17.137Z,18.60
2023-02-14T10:38:45.585Z,18.63
2023-02-14T10:42:54.534Z,18.53
2023-02-14T10:47:04.172Z,17.80
2023-02-14T10:51:32.736Z,18.63
2023-02-14T10:55:48.955Z,18.70
2023-02-14T11:00:24.643Z,20.50
2023-02-14T11:04:26.641Z,18.17
2023-02-14T11:08:32.992Z,18.77
2023-02-14T11:12:40.061Z,17.87
2023-02-14T11:16:42.049Z,18.93
2023-02-14T11:20:43.415Z,20.53
2023-02-14T11:24:45.931Z,17.97
2023-02-14T11:28:55.736Z,16.17
2023-02-14T11:32:57.410Z,17.58
2023-02-14T11:36:58.895Z,17.70
2023-02-14T11:41:00.722Z,16.57
2023-02-14T11:45:05.099Z,16.20
2023-02-14T11:49:24.220Z,16.53
2023-02-14T11:53:28.759Z,17.67
2023-02-14T11:57:35.352Z,20.67
2023-02-14T12:01:38.629Z,16.40
2023-02-14T12:05:50.506Z,18.77
2023-02-14T12:10:13.199Z,18.97
2023-02-14T12:14:22.499Z,17.43
2023-02-14T12:18:47.963Z,16.20
2023-02-14T12:23:01.582Z,18.50
2023-02-14T12:27:17.848Z,16.67
2023-02-14T12:31:19.687Z,16.20
2023-02-14T12:35:51.907Z,19.40
2023-02-14T12:40:12.336Z,15.43
2023-02-14T12:44:25.456Z,16.30
2023-02-14T12:48:38.287Z,16.57
2023-02-14T12:53:20.987Z,16.47
2023-02-14T12:57:43.659Z,18.60
2023-02-14T13:02:05.110Z,14.47
2023-02-14T13:06:32.841Z,15.60
2023-02-14T13:11:01.809Z,14.93
2023-02-14T13:15:21.923Z,15.80
2023-02-14T13:19:51.990Z,16.07
2023-02-14T13:23:59.797Z,17.33
2023-02-14T13:28:04.611Z,14.60
2023-02-14T13:32:06.232Z,17.93
2023-02-14T13:36:10.817Z,16.60
2023-02-14T13:40:18.841Z,15.00
2023-02-14T13:44:38.777Z,14.70
2023-02-14T13:48:40.587Z,14.37
2023-02-14T13:52:46.034Z,14.43
2023-02-14T13:56:48.289Z,15.93
2023-02-14T14:00:51.943Z,17.73
2023-02-14T14:04:53.578Z,14.80
2023-02-14T14:08:56.582Z,14.13
2023-02-14T14:12:58.013Z,14.43
2023-02-14T14:17:00.550Z,15.43
2023-02-14T14:21:15.617Z,15.63
2023-02-14T14:25:32.045Z,17.17
2023-02-14T14:29:39.391Z,14.87
2023-02-14T14:33:40.665Z,14.93
2023-02-14T14:37:57.263Z,15.17
2023-02-14T14:42:14.987Z,15.90
2023-02-14T14:46:16.979Z,12.77
2023-02-14T14:50:25.585Z,13.20
2023-02-14T14:54:27.621Z,13.10
2023-02-14T14:58:33.427Z,12.50
2023-02-14T15:02:35.206Z,16.20
2023-02-14T15:06:39.097Z,14.37
2023-02-14T15:10:40.729Z,13.03
2023-02-14T15:14:46.152Z,13.43
2023-02-14T15:18:49.239Z,13.17
2023-02-14T15:22:52.908Z,13.37
2023-02-14T15:26:56.278Z,13.30
2023-02-14T15:31:07.816Z,12.67
2023-02-14T15:35:11.912Z,13.87
2023-02-14T15:39:16.425Z,13.37
2023-02-14T15:43:17.789Z,13.70
2023-02-14T15:47:19.754Z,13.17
2023-02-14T15:51:27.852Z,13.73
2023-02-14T15:55:30.568Z,13.60
2023-02-14T15:59:40.937Z,13.83
2023-02-14T16:03:51.682Z,12.90
2023-02-14T16:07:57.064Z,12.87
2023-02-14T16:11:58.605Z,12.50
2023-02-14T16:16:06.490Z,12.17
2023-02-14T16:20:38.827Z,14.13
2023-02-14T16:24:41.957Z,13.93
2023-02-14T16:28:43.553Z,13.33
2023-02-14T16:32:50.570Z,14.73
2023-02-14T16:36:51.982Z,15.63
2023-02-14T16:40:54.422Z,12.17
2023-02-14T16:44:55.854Z,13.07
2023-02-14T16:48:57.570Z,15.60
2023-02-14T16:52:58.973Z,13.93
2023-02-14T16:57:04.138Z,14.67
2023-02-14T17:01:05.525Z,14.37
2023-02-14T17:05:06.985Z,18.20
2023-02-14T17:09:11.703Z,17.77
2023-02-14T17:13:15.582Z,14.90
2023-02-14T17:17:17.441Z,14.63
2023-02-14T17:21:23.794Z,17.57
2023-02-14T17:25:25.637Z,16.23
2023-02-14T17:29:27.004Z,19.30
2023-02-14T17:33:30.339Z,16.23
2023-02-14T17:37:32.467Z,15.93
2023-02-14T17:41:33.866Z,15.93
2023-02-14T17:45:35.462Z,18.07
2023-02-14T17:49:36.850Z,17.70
2023-02-14T17:53:38.481Z,16.70
2023-02-14T17:57:40.894Z,16.23
2023-02-14T18:01:42.307Z,18.50
2023-02-14T18:05:43.636Z,18.33
2023-02-14T18:09:44.981Z,17.33
2023-02-14T18:13:47.263Z,16.23
2023-02-14T18:17:49.909Z,16.93
2023-02-14T18:21:51.297Z,18.27
2023-02-14T18:25:55.900Z,16.83
2023-02-14T18:29:57.243Z,19.70
2023-02-14T18:34:00.963Z,21.73
2023-02-14T18:38:02.401Z,23.03
2023-02-14T18:42:04.461Z,19.03
2023-02-14T18:46:12.150Z,20.63
2023-02-14T18:50:13.442Z,19.50
2023-02-14T18:54:14.927Z,20.50
2023-02-14T18:58:16.272Z,20.73
2023-02-14T19:02:17.792Z,22.13
2023-02-14T19:06:19.718Z,21.23
2023-02-14T19:10:21.030Z,25.97
2023-02-14T19:14:22.376Z,22.83
2023-02-14T19:18:25.754Z,23.03
2023-02-14T19:22:27.105Z,20.67
2023-02-14T19:26:32.730Z,26.00
2023-02-14T19:30:34.571Z,24.07
2023-02-14T19:34:36.461Z,23.50
2023-02-14T19:38:38.313Z,26.07
2023-02-14T19:42:39.655Z,24.33
2023-02-14T19:46:42.664Z,23.13
2023-02-14T19:50:44.170Z,23.83
2023-02-14T19:54:45.604Z,27.50
2023-02-14T19:58:47.527Z,26.30
2023-02-14T20:02:48.924Z,27.90
2023-02-14T20:06:51.129Z,25.17
2023-02-14T20:10:52.478Z,27.20
2023-02-14T20:14:54.510Z,27.67
2023-02-14T20:18:55.879Z,24.27
2023-02-14T20:22:57.240Z,28.07
2023-02-14T20:27:00.376Z,27.00
2023-02-14T20:31:07.210Z,26.53
2023-02-14T20:35:08.619Z,27.57
2023-02-14T20:39:12.576Z,26.87
2023-02-14T20:43:13.918Z,27.77
2023-02-14T20:47:16.913Z,27.00
2023-02-14T20:51:19.846Z,28.33
2023-02-14T20:55:21.208Z,25.13
2023-02-14T20:59:26.859Z,25.90
2023-02-14T21:03:32.008Z,27.10
2023-02-14T21:07:33.337Z,27.40
2023-02-14T21:11:34.672Z,28.50
2023-02-14T21:15:35.988Z,27.47
2023-02-14T21:19:41.061Z,27.20
2023-02-14T21:23:46.054Z,29.13
2023-02-14T21:27:50.177Z,26.27
2023-02-14T21:31:52.149Z,26.33
2023-02-14T21:35:55.119Z,27.83
2023-02-14T21:39:56.485Z,27.00
2023-02-14T21:44:01.668Z,28.40
2023-02-14T21:48:21.863Z,31.80
2023-02-14T21:52:23.198Z,29.77
2023-02-14T21:56:24.502Z,27.73
2023-02-14T22:00:26.215Z,26.60
2023-02-14T22:04:27.570Z,30.53
2023-02-14T22:08:29.456Z,29.07
2023-02-14T22:12:30.982Z,29.87
2023-02-14T22:16:32.653Z,30.43
2023-02-14T22:20:34.040Z,29.90
2023-02-14T22:24:35.345Z,30.83
2023-02-14T22:28:36.729Z,28.97
2023-02-14T22:32:38.040Z,29.70
2023-02-14T22:36:39.690Z,33.03
2023-02-14T22:40:43.241Z,30.73
2023-02-14T22:44:44.640Z,33.27
2023-02-14T22:48:47.235Z,33.10
2023-02-14T22:52:48.515Z,31.93
2023-02-14T22:56:53.379Z,33.47
2023-02-14T23:00:56.664Z,31.90
2023-02-14T23:04:58.060Z,32.30
2023-02-14T23:09:00.653Z,32.90
2023-02-14T23:13:20.541Z,33.23
2023-02-14T23:17:40.868Z,31.90
2023-02-14T23:21:54.315Z,33.73
2023-02-14T23:25:55.632Z,35.27
2023-02-14T23:29:57.133Z,33.87
2023-02-14T23:33:58.470Z,33.67
2023-02-14T23:37:59.857Z,36.63
2023-02-14T23:42:02.579Z,35.70
2023-02-14T23:46:04.217Z,36.03
2023-02-14T23:50:06.312Z,36.40
2023-02-14T23:54:08.166Z,34.73
2023-02-14T23:58:09.532Z,34.57
